Es Semara, Morocco
Current Conditions -  °F | °C
As of 3:00 PM on Thursday 27 Nov 2014 (Local Time) from GMML Reporting Station
Scattered Clouds Scattered Clouds  
Wind Chill: 68°   Ceiling: Unl
Heat Index: 68°   Visibility: 6mi
Dew Point: 57°   Wind: 16mph
Humidity: 68%   Direction: 340°NNW
Pressure: 29.88"   Gusts: NA
Location:  26.68°N, 11.67°W
Report Text: GMML 271400Z 34014KT 9999 SCT020 SCT023 20/14 Q1012 NOSIG
Loading
Personal Weather Stations






























Interactive Weather Map New forecast layout! Learn more

10-Day Weather Forecast

Advertisements
Track Severe Weather on mobile